Terminal Aerodrome Forecast
Issued by NWS Grand Forks, ND

Home | Current Version | Previous Version | Graphics & Text | Print | Product List | Glossary On
Versions: 1 2 3 4 5 6 7 8 9 10 11 12 13 14 15 16
000
FTUS43 KFGF 142300
TAFGFK
TAF
KGFK 142320Z 1500/1524 36008KT 1/2SM FG VV002
     FM150400 34012KT 1SM -RA BR OVC004
     FM151200 34020KT 2SM BR OVC005
     FM152000 35024G30KT 3/4SM BR OVC015=

USA.gov is the U.S. government's official web portal to all federal, state and local government web resources and services.